sensor_id;sensor_type;location;lat;lon;timestamp;temperature;humidity
27848;DHT22;15212;48.830;8.730;2022-11-20T00:01:33;5.50;99.90
27848;DHT22;15212;48.830;8.730;2022-11-20T00:04:01;5.50;99.90
27848;DHT22;15212;48.830;8.730;2022-11-20T00:06:30;5.50;99.90
27848;DHT22;15212;48.830;8.730;2022-11-20T00:09:00;5.50;99.90
27848;DHT22;15212;48.830;8.730;2022-11-20T00:11:30;5.50;99.90
27848;DHT22;15212;48.830;8.730;2022-11-20T00:14:00;5.50;99.90
27848;DHT22;15212;48.830;8.730;2022-11-20T00:16:31;5.60;99.90
27848;DHT22;15212;48.830;8.730;2022-11-20T00:19:01;5.50;99.90
27848;DHT22;15212;48.830;8.730;2022-11-20T00:21:29;5.60;99.90
27848;DHT22;15212;48.830;8.730;2022-11-20T00:23:58;5.50;99.90
27848;DHT22;15212;48.830;8.730;2022-11-20T00:26:28;5.50;99.90
27848;DHT22;15212;48.830;8.730;2022-11-20T00:28:59;5.50;99.90
27848;DHT22;15212;48.830;8.730;2022-11-20T00:31:29;5.50;99.90
27848;DHT22;15212;48.830;8.730;2022-11-20T00:33:59;5.50;99.90
27848;DHT22;15212;48.830;8.730;2022-11-20T00:36:31;5.40;99.90
27848;DHT22;15212;48.830;8.730;2022-11-20T00:39:00;5.40;99.90
27848;DHT22;15212;48.830;8.730;2022-11-20T00:41:29;5.30;99.90
27848;DHT22;15212;48.830;8.730;2022-11-20T00:43:58;5.30;99.90
27848;DHT22;15212;48.830;8.730;2022-11-20T00:46:27;5.20;99.90
27848;DHT22;15212;48.830;8.730;2022-11-20T00:48:56;5.20;99.90
27848;DHT22;15212;48.830;8.730;2022-11-20T00:51:26;5.20;99.90
27848;DHT22;15212;48.830;8.730;2022-11-20T00:53:58;5.20;99.90
27848;DHT22;15212;48.830;8.730;2022-11-20T00:56:28;5.20;99.90
27848;DHT22;15212;48.830;8.730;2022-11-20T00:58:59;5.20;99.90
27848;DHT22;15212;48.830;8.730;2022-11-20T01:01:27;5.10;99.90
27848;DHT22;15212;48.830;8.730;2022-11-20T01:03:58;5.10;99.90
27848;DHT22;15212;48.830;8.730;2022-11-20T01:06:30;5.10;99.90
27848;DHT22;15212;48.830;8.730;2022-11-20T01:09:03;5.00;99.90
27848;DHT22;15212;48.830;8.730;2022-11-20T01:11:36;5.00;99.90
27848;DHT22;15212;48.830;8.730;2022-11-20T01:14:09;5.00;99.90
27848;DHT22;15212;48.830;8.730;2022-11-20T01:16:41;5.00;99.90
27848;DHT22;15212;48.830;8.730;2022-11-20T01:19:17;4.90;99.90
27848;DHT22;15212;48.830;8.730;2022-11-20T01:21:50;4.90;99.90
27848;DHT22;15212;48.830;8.730;2022-11-20T01:24:20;4.90;99.90
27848;DHT22;15212;48.830;8.730;2022-11-20T01:26:50;4.90;99.90
27848;DHT22;15212;48.830;8.730;2022-11-20T01:29:23;4.90;99.90
27848;DHT22;15212;48.830;8.730;2022-11-20T01:31:52;4.90;99.90
27848;DHT22;15212;48.830;8.730;2022-11-20T01:34:22;5.00;99.90
27848;DHT22;15212;48.830;8.730;2022-11-20T01:36:52;5.00;99.90
27848;DHT22;15212;48.830;8.730;2022-11-20T01:39:24;5.00;99.90
27848;DHT22;15212;48.830;8.730;2022-11-20T01:41:54;5.10;99.90
27848;DHT22;15212;48.830;8.730;2022-11-20T01:44:47;5.10;99.90
27848;DHT22;15212;48.830;8.730;2022-11-20T01:50:11;5.10;99.90
27848;DHT22;15212;48.830;8.730;2022-11-20T01:52:55;5.10;99.90
27848;DHT22;15212;48.830;8.730;2022-11-20T01:55:28;5.10;99.90
27848;DHT22;15212;48.830;8.730;2022-11-20T01:58:01;5.00;99.90
27848;DHT22;15212;48.830;8.730;2022-11-20T02:00:31;5.00;99.90
27848;DHT22;15212;48.830;8.730;2022-11-20T02:03:14;5.00;99.90
27848;DHT22;15212;48.830;8.730;2022-11-20T02:06:13;5.00;99.90
27848;DHT22;15212;48.830;8.730;2022-11-20T02:08:46;5.00;99.90
27848;DHT22;15212;48.830;8.730;2022-11-20T02:11:14;5.10;99.90
27848;DHT22;15212;48.830;8.730;2022-11-20T02:13:42;5.10;99.90
27848;DHT22;15212;48.830;8.730;2022-11-20T02:16:17;5.10;99.90
27848;DHT22;15212;48.830;8.730;2022-11-20T02:18:49;5.10;99.90
27848;DHT22;15212;48.830;8.730;2022-11-20T02:21:24;5.20;99.90
27848;DHT22;15212;48.830;8.730;2022-11-20T02:24:19;5.20;99.90
27848;DHT22;15212;48.830;8.730;2022-11-20T02:26:54;5.20;99.90
27848;DHT22;15212;48.830;8.730;2022-11-20T02:29:49;5.20;99.90
27848;DHT22;15212;48.830;8.730;2022-11-20T02:32:01;5.30;99.90
27848;DHT22;15212;48.830;8.730;2022-11-20T02:34:30;5.20;99.90
27848;DHT22;15212;48.830;8.730;2022-11-20T02:37:00;5.30;99.90
27848;DHT22;15212;48.830;8.730;2022-11-20T02:39:28;5.20;99.90
27848;DHT22;15212;48.830;8.730;2022-11-20T02:41:57;5.20;99.90
27848;DHT22;15212;48.830;8.730;2022-11-20T02:44:25;5.30;99.90
27848;DHT22;15212;48.830;8.730;2022-11-20T02:46:56;5.30;99.90
27848;DHT22;15212;48.830;8.730;2022-11-20T02:49:26;5.30;99.90
27848;DHT22;15212;48.830;8.730;2022-11-20T02:51:55;5.30;99.90
27848;DHT22;15212;48.830;8.730;2022-11-20T02:54:23;5.30;99.90
27848;DHT22;15212;48.830;8.730;2022-11-20T02:56:52;5.30;99.90
27848;DHT22;15212;48.830;8.730;2022-11-20T02:59:21;5.30;99.90
27848;DHT22;15212;48.830;8.730;2022-11-20T03:01:49;5.20;99.90
27848;DHT22;15212;48.830;8.730;2022-11-20T03:04:17;5.20;99.90
27848;DHT22;15212;48.830;8.730;2022-11-20T03:06:46;5.20;99.90
27848;DHT22;15212;48.830;8.730;2022-11-20T03:09:14;5.20;99.90
27848;DHT22;15212;48.830;8.730;2022-11-20T03:11:43;5.10;99.90
27848;DHT22;15212;48.830;8.730;2022-11-20T03:14:11;5.10;99.90
27848;DHT22;15212;48.830;8.730;2022-11-20T03:16:40;5.10;99.90
27848;DHT22;15212;48.830;8.730;2022-11-20T03:19:08;5.10;99.90
27848;DHT22;15212;48.830;8.730;2022-11-20T03:21:37;5.20;99.90
27848;DHT22;15212;48.830;8.730;2022-11-20T03:24:05;5.20;99.90
27848;DHT22;15212;48.830;8.730;2022-11-20T03:26:34;5.20;99.90
27848;DHT22;15212;48.830;8.730;2022-11-20T03:29:04;5.20;99.90
27848;DHT22;15212;48.830;8.730;2022-11-20T03:31:38;5.20;99.90
27848;DHT22;15212;48.830;8.730;2022-11-20T03:34:08;5.20;99.90
27848;DHT22;15212;48.830;8.730;2022-11-20T03:36:41;5.20;99.90
27848;DHT22;15212;48.830;8.730;2022-11-20T03:39:10;5.20;99.90
27848;DHT22;15212;48.830;8.730;2022-11-20T03:41:40;5.20;99.90
27848;DHT22;15212;48.830;8.730;2022-11-20T03:44:10;5.20;99.90
27848;DHT22;15212;48.830;8.730;2022-11-20T03:46:39;5.30;99.90
27848;DHT22;15212;48.830;8.730;2022-11-20T03:49:07;5.30;99.90
27848;DHT22;15212;48.830;8.730;2022-11-20T03:51:36;5.30;99.90
27848;DHT22;15212;48.830;8.730;2022-11-20T03:54:06;5.30;99.90
27848;DHT22;15212;48.830;8.730;2022-11-20T03:56:37;5.30;99.90
27848;DHT22;15212;48.830;8.730;2022-11-20T03:59:06;5.30;99.90
27848;DHT22;15212;48.830;8.730;2022-11-20T04:01:37;5.30;99.90
27848;DHT22;15212;48.830;8.730;2022-11-20T04:04:06;5.40;99.90
27848;DHT22;15212;48.830;8.730;2022-11-20T04:06:36;5.30;99.90
27848;DHT22;15212;48.830;8.730;2022-11-20T04:09:06;5.40;99.90
27848;DHT22;15212;48.830;8.730;2022-11-20T04:11:36;5.40;99.90
27848;DHT22;15212;48.830;8.730;2022-11-20T04:14:12;5.40;99.90
27848;DHT22;15212;48.830;8.730;2022-11-20T04:16:42;5.40;99.90
27848;DHT22;15212;48.830;8.730;2022-11-20T04:19:12;5.40;99.90
27848;DHT22;15212;48.830;8.730;2022-11-20T04:21:43;5.40;99.90
27848;DHT22;15212;48.830;8.730;2022-11-20T04:24:12;5.40;99.90
27848;DHT22;15212;48.830;8.730;2022-11-20T04:26:40;5.50;99.90
27848;DHT22;15212;48.830;8.730;2022-11-20T04:29:11;5.50;99.90
27848;DHT22;15212;48.830;8.730;2022-11-20T04:31:39;5.50;99.90
27848;DHT22;15212;48.830;8.730;2022-11-20T04:34:11;5.40;99.90
27848;DHT22;15212;48.830;8.730;2022-11-20T04:36:38;5.50;99.90
27848;DHT22;15212;48.830;8.730;2022-11-20T04:39:06;5.50;99.90
27848;DHT22;15212;48.830;8.730;2022-11-20T04:41:37;5.50;99.90
27848;DHT22;15212;48.830;8.730;2022-11-20T04:44:06;5.40;99.90
27848;DHT22;15212;48.830;8.730;2022-11-20T04:46:37;5.40;99.90
27848;DHT22;15212;48.830;8.730;2022-11-20T04:49:07;5.40;99.90
27848;DHT22;15212;48.830;8.730;2022-11-20T04:51:37;5.50;99.90
27848;DHT22;15212;48.830;8.730;2022-11-20T04:54:05;5.40;99.90
27848;DHT22;15212;48.830;8.730;2022-11-20T04:56:34;5.40;99.90
27848;DHT22;15212;48.830;8.730;2022-11-20T04:59:03;5.50;99.90
27848;DHT22;15212;48.830;8.730;2022-11-20T05:01:31;5.50;99.90
27848;DHT22;15212;48.830;8.730;2022-11-20T05:03:59;5.40;99.90
27848;DHT22;15212;48.830;8.730;2022-11-20T05:06:28;5.50;99.90
27848;DHT22;15212;48.830;8.730;2022-11-20T05:08:56;5.40;99.90
27848;DHT22;15212;48.830;8.730;2022-11-20T05:11:24;5.40;99.90
27848;DHT22;15212;48.830;8.730;2022-11-20T05:13:54;5.40;99.90
27848;DHT22;15212;48.830;8.730;2022-11-20T05:16:25;5.40;99.90
27848;DHT22;15212;48.830;8.730;2022-11-20T05:18:54;5.40;99.90
27848;DHT22;15212;48.830;8.730;2022-11-20T05:21:23;5.40;99.90
27848;DHT22;15212;48.830;8.730;2022-11-20T05:23:51;5.50;99.90
27848;DHT22;15212;48.830;8.730;2022-11-20T05:26:21;5.40;99.90
27848;DHT22;15212;48.830;8.730;2022-11-20T05:28:51;5.40;99.90
27848;DHT22;15212;48.830;8.730;2022-11-20T05:31:24;5.50;99.90
27848;DHT22;15212;48.830;8.730;2022-11-20T05:33:53;5.40;99.90
27848;DHT22;15212;48.830;8.730;2022-11-20T05:36:21;5.50;99.90
27848;DHT22;15212;48.830;8.730;2022-11-20T05:38:50;5.40;99.90
27848;DHT22;15212;48.830;8.730;2022-11-20T05:41:19;5.40;99.90
27848;DHT22;15212;48.830;8.730;2022-11-20T05:43:49;5.40;99.90
27848;DHT22;15212;48.830;8.730;2022-11-20T05:46:19;5.40;99.90
27848;DHT22;15212;48.830;8.730;2022-11-20T05:48:48;5.40;99.90
27848;DHT22;15212;48.830;8.730;2022-11-20T05:51:18;5.40;99.90
27848;DHT22;15212;48.830;8.730;2022-11-20T05:53:47;5.40;99.90
27848;DHT22;15212;48.830;8.730;2022-11-20T05:56:17;5.40;99.90
27848;DHT22;15212;48.830;8.730;2022-11-20T05:58:47;5.40;99.90
27848;DHT22;15212;48.830;8.730;2022-11-20T06:01:21;5.40;99.90
27848;DHT22;15212;48.830;8.730;2022-11-20T06:03:52;5.40;99.90
27848;DHT22;15212;48.830;8.730;2022-11-20T06:06:21;5.40;99.90
27848;DHT22;15212;48.830;8.730;2022-11-20T06:08:52;5.40;99.90
27848;DHT22;15212;48.830;8.730;2022-11-20T06:11:20;5.50;99.90
27848;DHT22;15212;48.830;8.730;2022-11-20T06:13:49;5.40;99.90
27848;DHT22;15212;48.830;8.730;2022-11-20T06:16:19;5.40;99.90
27848;DHT22;15212;48.830;8.730;2022-11-20T06:18:48;5.50;99.90
27848;DHT22;15212;48.830;8.730;2022-11-20T06:21:19;5.50;99.90
27848;DHT22;15212;48.830;8.730;2022-11-20T06:23:49;5.50;99.90
27848;DHT22;15212;48.830;8.730;2022-11-20T06:26:25;5.50;99.90
27848;DHT22;15212;48.830;8.730;2022-11-20T06:28:54;5.50;99.90
27848;DHT22;15212;48.830;8.730;2022-11-20T06:31:24;5.50;99.90
27848;DHT22;15212;48.830;8.730;2022-11-20T06:33:53;5.50;99.90
27848;DHT22;15212;48.830;8.730;2022-11-20T06:36:22;5.50;99.90
27848;DHT22;15212;48.830;8.730;2022-11-20T06:38:51;5.50;99.90
27848;DHT22;15212;48.830;8.730;2022-11-20T06:41:21;5.60;99.90
27848;DHT22;15212;48.830;8.730;2022-11-20T06:43:50;5.60;99.90
27848;DHT22;15212;48.830;8.730;2022-11-20T06:46:19;5.60;99.90
27848;DHT22;15212;48.830;8.730;2022-11-20T06:48:48;5.60;99.90
27848;DHT22;15212;48.830;8.730;2022-11-20T06:51:17;5.60;99.90
27848;DHT22;15212;48.830;8.730;2022-11-20T06:53:45;5.60;99.90
27848;DHT22;15212;48.830;8.730;2022-11-20T06:56:15;5.70;99.90
27848;DHT22;15212;48.830;8.730;2022-11-20T06:58:43;5.70;99.90
27848;DHT22;15212;48.830;8.730;2022-11-20T07:01:13;5.60;99.90
27848;DHT22;15212;48.830;8.730;2022-11-20T07:03:42;5.60;99.90
27848;DHT22;15212;48.830;8.730;2022-11-20T07:06:11;5.60;99.90
27848;DHT22;15212;48.830;8.730;2022-11-20T07:08:39;5.60;99.90
27848;DHT22;15212;48.830;8.730;2022-11-20T07:11:08;5.60;99.90
27848;DHT22;15212;48.830;8.730;2022-11-20T07:13:38;5.60;99.90
27848;DHT22;15212;48.830;8.730;2022-11-20T07:16:07;5.60;99.90
27848;DHT22;15212;48.830;8.730;2022-11-20T07:18:36;5.60;99.90
27848;DHT22;15212;48.830;8.730;2022-11-20T07:21:07;5.70;99.90
27848;DHT22;15212;48.830;8.730;2022-11-20T07:23:37;5.60;99.90
27848;DHT22;15212;48.830;8.730;2022-11-20T07:26:08;5.60;99.90
27848;DHT22;15212;48.830;8.730;2022-11-20T07:28:37;5.60;99.90
27848;DHT22;15212;48.830;8.730;2022-11-20T07:31:06;5.60;99.90
27848;DHT22;15212;48.830;8.730;2022-11-20T07:33:35;5.60;99.90
27848;DHT22;15212;48.830;8.730;2022-11-20T07:36:03;5.50;99.90
27848;DHT22;15212;48.830;8.730;2022-11-20T07:38:32;5.50;99.90
27848;DHT22;15212;48.830;8.730;2022-11-20T07:41:00;5.50;99.90
27848;DHT22;15212;48.830;8.730;2022-11-20T07:43:29;5.50;99.90
27848;DHT22;15212;48.830;8.730;2022-11-20T07:46:00;5.50;99.90
27848;DHT22;15212;48.830;8.730;2022-11-20T07:48:30;5.50;99.90
27848;DHT22;15212;48.830;8.730;2022-11-20T07:50:58;5.50;99.90
27848;DHT22;15212;48.830;8.730;2022-11-20T07:53:27;5.50;99.90
27848;DHT22;15212;48.830;8.730;2022-11-20T07:55:58;5.50;99.90
27848;DHT22;15212;48.830;8.730;2022-11-20T07:58:29;5.50;99.90
27848;DHT22;15212;48.830;8.730;2022-11-20T08:01:07;5.50;99.90
27848;DHT22;15212;48.830;8.730;2022-11-20T08:03:37;5.50;99.90
27848;DHT22;15212;48.830;8.730;2022-11-20T08:06:06;5.50;99.90
27848;DHT22;15212;48.830;8.730;2022-11-20T08:08:35;5.50;99.90
27848;DHT22;15212;48.830;8.730;2022-11-20T08:11:06;5.50;99.90
27848;DHT22;15212;48.830;8.730;2022-11-20T08:13:52;5.60;99.90
27848;DHT22;15212;48.830;8.730;2022-11-20T08:16:40;5.50;99.90
27848;DHT22;15212;48.830;8.730;2022-11-20T08:19:13;5.60;99.90
27848;DHT22;15212;48.830;8.730;2022-11-20T08:21:43;5.50;99.90
27848;DHT22;15212;48.830;8.730;2022-11-20T08:24:12;5.60;99.90
27848;DHT22;15212;48.830;8.730;2022-11-20T08:26:41;5.60;99.90
27848;DHT22;15212;48.830;8.730;2022-11-20T08:29:09;5.50;99.90
27848;DHT22;15212;48.830;8.730;2022-11-20T08:31:37;5.60;99.90
27848;DHT22;15212;48.830;8.730;2022-11-20T08:34:06;5.60;99.90
27848;DHT22;15212;48.830;8.730;2022-11-20T08:36:34;5.60;99.90
27848;DHT22;15212;48.830;8.730;2022-11-20T08:39:05;5.60;99.90
27848;DHT22;15212;48.830;8.730;2022-11-20T08:41:33;5.60;99.90
27848;DHT22;15212;48.830;8.730;2022-11-20T08:44:05;5.70;99.90
27848;DHT22;15212;48.830;8.730;2022-11-20T08:46:37;5.70;99.90
27848;DHT22;15212;48.830;8.730;2022-11-20T08:49:09;5.70;99.90
27848;DHT22;15212;48.830;8.730;2022-11-20T08:51:39;5.80;99.90
27848;DHT22;15212;48.830;8.730;2022-11-20T08:54:08;5.70;99.90
27848;DHT22;15212;48.830;8.730;2022-11-20T08:56:37;5.80;99.90
27848;DHT22;15212;48.830;8.730;2022-11-20T08:59:05;5.70;99.90
27848;DHT22;15212;48.830;8.730;2022-11-20T09:01:34;5.80;99.90
27848;DHT22;15212;48.830;8.730;2022-11-20T09:04:02;5.70;99.90
27848;DHT22;15212;48.830;8.730;2022-11-20T09:06:31;5.70;99.90
27848;DHT22;15212;48.830;8.730;2022-11-20T09:08:59;5.80;99.90
27848;DHT22;15212;48.830;8.730;2022-11-20T09:11:28;5.80;99.90
27848;DHT22;15212;48.830;8.730;2022-11-20T09:13:56;5.90;99.90
27848;DHT22;15212;48.830;8.730;2022-11-20T09:16:24;5.90;99.90
27848;DHT22;15212;48.830;8.730;2022-11-20T09:18:53;5.80;99.90
27848;DHT22;15212;48.830;8.730;2022-11-20T09:21:21;5.80;99.90
27848;DHT22;15212;48.830;8.730;2022-11-20T09:23:50;5.80;99.90
27848;DHT22;15212;48.830;8.730;2022-11-20T09:26:18;5.80;99.90
27848;DHT22;15212;48.830;8.730;2022-11-20T09:28:47;5.80;99.90
27848;DHT22;15212;48.830;8.730;2022-11-20T09:31:22;5.80;99.90
27848;DHT22;15212;48.830;8.730;2022-11-20T09:33:50;5.80;99.90
27848;DHT22;15212;48.830;8.730;2022-11-20T09:36:19;5.80;99.90
27848;DHT22;15212;48.830;8.730;2022-11-20T09:38:47;5.80;99.90
27848;DHT22;15212;48.830;8.730;2022-11-20T09:42:04;5.70;99.90
27848;DHT22;15212;48.830;8.730;2022-11-20T09:47:17;5.80;99.90
27848;DHT22;15212;48.830;8.730;2022-11-20T09:52:57;5.70;99.90
27848;DHT22;15212;48.830;8.730;2022-11-20T09:55:16;5.70;99.90
27848;DHT22;15212;48.830;8.730;2022-11-20T09:57:46;5.70;99.90
27848;DHT22;15212;48.830;8.730;2022-11-20T10:00:17;5.60;99.90
27848;DHT22;15212;48.830;8.730;2022-11-20T10:03:12;5.60;99.90
27848;DHT22;15212;48.830;8.730;2022-11-20T10:05:53;5.60;99.90
27848;DHT22;15212;48.830;8.730;2022-11-20T10:08:25;5.60;99.90
27848;DHT22;15212;48.830;8.730;2022-11-20T10:11:21;5.60;99.90
27848;DHT22;15212;48.830;8.730;2022-11-20T10:17:15;5.60;99.90
27848;DHT22;15212;48.830;8.730;2022-11-20T10:20:02;5.60;99.90
27848;DHT22;15212;48.830;8.730;2022-11-20T10:23:36;5.70;99.90
27848;DHT22;15212;48.830;8.730;2022-11-20T10:25:54;5.70;99.90
27848;DHT22;15212;48.830;8.730;2022-11-20T10:31:09;5.80;99.90
27848;DHT22;15212;48.830;8.730;2022-11-20T10:33:42;5.80;99.90
27848;DHT22;15212;48.830;8.730;2022-11-20T10:36:14;5.80;99.90
27848;DHT22;15212;48.830;8.730;2022-11-20T10:38:58;5.80;99.90
27848;DHT22;15212;48.830;8.730;2022-11-20T10:41:30;5.80;99.90
27848;DHT22;15212;48.830;8.730;2022-11-20T10:44:14;5.80;99.90
27848;DHT22;15212;48.830;8.730;2022-11-20T10:46:45;5.70;99.90
27848;DHT22;15212;48.830;8.730;2022-11-20T10:49:18;5.70;99.90
27848;DHT22;15212;48.830;8.730;2022-11-20T10:51:59;5.80;99.90
27848;DHT22;15212;48.830;8.730;2022-11-20T10:54:34;5.80;99.90
27848;DHT22;15212;48.830;8.730;2022-11-20T10:57:13;6.00;99.90
27848;DHT22;15212;48.830;8.730;2022-11-20T11:00:07;6.20;99.90
27848;DHT22;15212;48.830;8.730;2022-11-20T11:05:27;6.50;99.90
27848;DHT22;15212;48.830;8.730;2022-11-20T11:08:10;6.50;99.90
27848;DHT22;15212;48.830;8.730;2022-11-20T11:10:47;6.40;99.90
27848;DHT22;15212;48.830;8.730;2022-11-20T11:13:25;6.10;99.90
27848;DHT22;15212;48.830;8.730;2022-11-20T11:15:54;6.10;99.90
27848;DHT22;15212;48.830;8.730;2022-11-20T11:18:31;6.10;99.90
27848;DHT22;15212;48.830;8.730;2022-11-20T11:21:03;6.10;99.90
27848;DHT22;15212;48.830;8.730;2022-11-20T11:23:41;6.20;99.90
27848;DHT22;15212;48.830;8.730;2022-11-20T11:26:21;6.30;99.90
27848;DHT22;15212;48.830;8.730;2022-11-20T11:28:59;6.30;99.90
27848;DHT22;15212;48.830;8.730;2022-11-20T11:31:32;6.30;99.90
27848;DHT22;15212;48.830;8.730;2022-11-20T11:34:12;6.30;99.90
27848;DHT22;15212;48.830;8.730;2022-11-20T11:36:49;6.20;99.90
27848;DHT22;15212;48.830;8.730;2022-11-20T11:39:18;6.30;99.90
27848;DHT22;15212;48.830;8.730;2022-11-20T11:41:48;6.30;99.90
27848;DHT22;15212;48.830;8.730;2022-11-20T11:44:22;6.40;99.90
27848;DHT22;15212;48.830;8.730;2022-11-20T11:47:23;6.40;99.90
27848;DHT22;15212;48.830;8.730;2022-11-20T11:55:45;6.30;99.90
27848;DHT22;15212;48.830;8.730;2022-11-20T11:58:46;6.30;99.90
27848;DHT22;15212;48.830;8.730;2022-11-20T12:04:33;6.50;99.90
27848;DHT22;15212;48.830;8.730;2022-11-20T12:07:03;6.60;99.90
27848;DHT22;15212;48.830;8.730;2022-11-20T12:09:41;6.70;99.90
27848;DHT22;15212;48.830;8.730;2022-11-20T12:12:17;6.70;99.90
27848;DHT22;15212;48.830;8.730;2022-11-20T12:14:50;6.80;99.90
27848;DHT22;15212;48.830;8.730;2022-11-20T12:17:20;6.80;99.90
27848;DHT22;15212;48.830;8.730;2022-11-20T12:19:49;6.90;99.90
27848;DHT22;15212;48.830;8.730;2022-11-20T12:28:06;6.70;99.90
27848;DHT22;15212;48.830;8.730;2022-11-20T12:33:48;6.80;99.90
27848;DHT22;15212;48.830;8.730;2022-11-20T12:36:40;6.80;99.90
27848;DHT22;15212;48.830;8.730;2022-11-20T12:42:24;6.70;99.90
27848;DHT22;15212;48.830;8.730;2022-11-20T12:45:31;6.70;99.90
27848;DHT22;15212;48.830;8.730;2022-11-20T13:06:02;6.70;99.90
27848;DHT22;15212;48.830;8.730;2022-11-20T13:08:37;6.70;99.90
27848;DHT22;15212;48.830;8.730;2022-11-20T13:11:34;6.70;99.90
27848;DHT22;15212;48.830;8.730;2022-11-20T13:14:07;6.70;99.90
27848;DHT22;15212;48.830;8.730;2022-11-20T13:17:05;6.70;99.90
27848;DHT22;15212;48.830;8.730;2022-11-20T13:19:35;6.60;99.90
27848;DHT22;15212;48.830;8.730;2022-11-20T13:22:04;6.60;99.90
27848;DHT22;15212;48.830;8.730;2022-11-20T13:24:32;6.50;99.90
27848;DHT22;15212;48.830;8.730;2022-11-20T13:29:59;6.40;99.90
27848;DHT22;15212;48.830;8.730;2022-11-20T13:32:22;6.40;99.90
27848;DHT22;15212;48.830;8.730;2022-11-20T13:34:56;6.40;99.90
27848;DHT22;15212;48.830;8.730;2022-11-20T13:37:30;6.30;99.90
27848;DHT22;15212;48.830;8.730;2022-11-20T13:42:54;6.20;99.90
27848;DHT22;15212;48.830;8.730;2022-11-20T13:45:31;6.20;99.90
27848;DHT22;15212;48.830;8.730;2022-11-20T13:48:02;6.10;99.90
27848;DHT22;15212;48.830;8.730;2022-11-20T13:50:40;6.10;99.90
27848;DHT22;15212;48.830;8.730;2022-11-20T13:53:33;6.00;99.90
27848;DHT22;15212;48.830;8.730;2022-11-20T13:59:00;6.00;99.90
27848;DHT22;15212;48.830;8.730;2022-11-20T14:01:48;6.00;99.90
27848;DHT22;15212;48.830;8.730;2022-11-20T14:04:20;6.10;99.90
27848;DHT22;15212;48.830;8.730;2022-11-20T14:06:52;6.10;99.90
27848;DHT22;15212;48.830;8.730;2022-11-20T14:09:31;6.20;99.90
27848;DHT22;15212;48.830;8.730;2022-11-20T14:12:02;6.20;99.90
27848;DHT22;15212;48.830;8.730;2022-11-20T14:14:33;6.20;99.90
27848;DHT22;15212;48.830;8.730;2022-11-20T14:17:24;6.30;99.90
27848;DHT22;15212;48.830;8.730;2022-11-20T14:20:00;6.30;99.90
27848;DHT22;15212;48.830;8.730;2022-11-20T14:22:29;6.30;99.90
27848;DHT22;15212;48.830;8.730;2022-11-20T14:25:17;6.30;99.90
27848;DHT22;15212;48.830;8.730;2022-11-20T14:27:47;6.30;99.90
27848;DHT22;15212;48.830;8.730;2022-11-20T14:30:24;6.30;99.90
27848;DHT22;15212;48.830;8.730;2022-11-20T14:32:56;6.40;99.90
27848;DHT22;15212;48.830;8.730;2022-11-20T14:35:28;6.40;99.90
27848;DHT22;15212;48.830;8.730;2022-11-20T14:37:57;6.50;99.90
27848;DHT22;15212;48.830;8.730;2022-11-20T14:40:34;6.50;99.90
27848;DHT22;15212;48.830;8.730;2022-11-20T14:43:24;6.50;99.90
27848;DHT22;15212;48.830;8.730;2022-11-20T14:46:08;6.50;99.90
27848;DHT22;15212;48.830;8.730;2022-11-20T14:48:48;6.50;99.90
27848;DHT22;15212;48.830;8.730;2022-11-20T14:54:13;6.40;99.90
27848;DHT22;15212;48.830;8.730;2022-11-20T14:56:58;6.30;99.90
27848;DHT22;15212;48.830;8.730;2022-11-20T14:59:32;6.30;99.90
27848;DHT22;15212;48.830;8.730;2022-11-20T15:02:04;6.20;99.90
27848;DHT22;15212;48.830;8.730;2022-11-20T15:04:46;6.20;99.90
27848;DHT22;15212;48.830;8.730;2022-11-20T15:07:26;6.10;99.90
27848;DHT22;15212;48.830;8.730;2022-11-20T15:10:02;6.10;99.90
27848;DHT22;15212;48.830;8.730;2022-11-20T15:12:37;6.00;99.90
27848;DHT22;15212;48.830;8.730;2022-11-20T15:15:10;6.00;99.90
27848;DHT22;15212;48.830;8.730;2022-11-20T15:17:40;5.90;99.90
27848;DHT22;15212;48.830;8.730;2022-11-20T15:20:16;5.90;99.90
27848;DHT22;15212;48.830;8.730;2022-11-20T15:22:45;5.80;99.90
27848;DHT22;15212;48.830;8.730;2022-11-20T15:25:15;5.80;99.90
27848;DHT22;15212;48.830;8.730;2022-11-20T15:27:45;5.70;99.90
27848;DHT22;15212;48.830;8.730;2022-11-20T15:30:18;5.70;99.90
27848;DHT22;15212;48.830;8.730;2022-11-20T15:32:47;5.70;99.90
27848;DHT22;15212;48.830;8.730;2022-11-20T15:35:16;5.70;99.90
27848;DHT22;15212;48.830;8.730;2022-11-20T15:37:44;5.70;99.90
27848;DHT22;15212;48.830;8.730;2022-11-20T15:40:13;5.70;99.90
27848;DHT22;15212;48.830;8.730;2022-11-20T15:42:41;5.60;99.90
27848;DHT22;15212;48.830;8.730;2022-11-20T15:45:11;5.60;99.90
27848;DHT22;15212;48.830;8.730;2022-11-20T15:47:40;5.60;99.90
27848;DHT22;15212;48.830;8.730;2022-11-20T15:50:11;5.60;99.90
27848;DHT22;15212;48.830;8.730;2022-11-20T15:52:40;5.60;99.90
27848;DHT22;15212;48.830;8.730;2022-11-20T15:55:10;5.60;99.90
27848;DHT22;15212;48.830;8.730;2022-11-20T15:57:38;5.50;99.90
27848;DHT22;15212;48.830;8.730;2022-11-20T16:00:07;5.50;99.90
27848;DHT22;15212;48.830;8.730;2022-11-20T16:02:36;5.50;99.90
27848;DHT22;15212;48.830;8.730;2022-11-20T16:05:09;5.50;99.90
27848;DHT22;15212;48.830;8.730;2022-11-20T16:07:37;5.50;99.90
27848;DHT22;15212;48.830;8.730;2022-11-20T16:10:06;5.50;99.90
27848;DHT22;15212;48.830;8.730;2022-11-20T16:12:35;5.50;99.90
27848;DHT22;15212;48.830;8.730;2022-11-20T16:15:05;5.50;99.90
27848;DHT22;15212;48.830;8.730;2022-11-20T16:17:53;5.50;99.90
27848;DHT22;15212;48.830;8.730;2022-11-20T16:20:21;5.50;99.90
27848;DHT22;15212;48.830;8.730;2022-11-20T16:22:49;5.50;99.90
27848;DHT22;15212;48.830;8.730;2022-11-20T16:25:18;5.50;99.90
27848;DHT22;15212;48.830;8.730;2022-11-20T16:27:46;5.40;99.90
27848;DHT22;15212;48.830;8.730;2022-11-20T16:30:15;5.40;99.90
27848;DHT22;15212;48.830;8.730;2022-11-20T16:32:43;5.40;99.90
27848;DHT22;15212;48.830;8.730;2022-11-20T16:35:11;5.40;99.90
27848;DHT22;15212;48.830;8.730;2022-11-20T16:37:40;5.40;99.90
27848;DHT22;15212;48.830;8.730;2022-11-20T16:40:10;5.40;99.90
27848;DHT22;15212;48.830;8.730;2022-11-20T16:42:39;5.40;99.90
27848;DHT22;15212;48.830;8.730;2022-11-20T16:45:07;5.40;99.90
27848;DHT22;15212;48.830;8.730;2022-11-20T16:47:36;5.50;99.90
27848;DHT22;15212;48.830;8.730;2022-11-20T16:50:05;5.50;99.90
27848;DHT22;15212;48.830;8.730;2022-11-20T16:52:33;5.50;99.90
27848;DHT22;15212;48.830;8.730;2022-11-20T16:55:02;5.50;99.90
27848;DHT22;15212;48.830;8.730;2022-11-20T16:57:31;5.50;99.90
27848;DHT22;15212;48.830;8.730;2022-11-20T17:00:00;5.50;99.90
27848;DHT22;15212;48.830;8.730;2022-11-20T17:02:29;5.50;99.90
27848;DHT22;15212;48.830;8.730;2022-11-20T17:04:57;5.50;99.90
27848;DHT22;15212;48.830;8.730;2022-11-20T17:07:26;5.50;99.90
27848;DHT22;15212;48.830;8.730;2022-11-20T17:09:54;5.50;99.90
27848;DHT22;15212;48.830;8.730;2022-11-20T17:12:23;5.50;99.90
27848;DHT22;15212;48.830;8.730;2022-11-20T17:14:51;5.40;99.90
27848;DHT22;15212;48.830;8.730;2022-11-20T17:17:20;5.50;99.90
27848;DHT22;15212;48.830;8.730;2022-11-20T17:19:48;5.50;99.90
27848;DHT22;15212;48.830;8.730;2022-11-20T17:22:17;5.40;99.90
27848;DHT22;15212;48.830;8.730;2022-11-20T17:24:45;5.40;99.90